Time;durP1;ratioP1;P1;durP2;ratioP2;P2;SDS_P1;SDS_P2;PMS_P1;PMS_P2;Temp;Humidity;BMP_temperature;BMP_pressure;BME280_temperature;BME280_humidity;BME280_pressure;Samples;Min_cycle;Max_cycle;Signal;HPM_P1;HPM_P2
2023/03/22 00:00:13;;;;;;;47.65;29.05;;;;;;;;;;4993586;28;20129;-66
2023/03/22 00:02:41;;;;;;;47.53;30.30;;;;;;;;;;4993466;28;20046;-67
2023/03/22 00:05:09;;;;;;;43.42;28.90;;;;;;;;;;4993369;28;20034;-66
2023/03/22 00:07:36;;;;;;;45.28;28.30;;;;;;;;;;4993316;28;20133;-67
2023/03/22 00:10:04;;;;;;;44.55;28.88;;;;;;;;;;4993573;28;20042;-66
2023/03/22 00:12:32;;;;;;;45.53;28.65;;;;;;;;;;4993438;28;20509;-67
2023/03/22 00:14:59;;;;;;;47.28;30.10;;;;;;;;;;4993235;28;20042;-67
2023/03/22 00:17:27;;;;;;;45.65;28.92;;;;;;;;;;4993252;28;20046;-67
2023/03/22 00:19:54;;;;;;;46.58;29.88;;;;;;;;;;4993134;28;20370;-67
2023/03/22 00:22:22;;;;;;;44.67;28.63;;;;;;;;;;4975587;28;20479;-67
2023/03/22 00:24:49;;;;;;;43.40;28.15;;;;;;;;;;4992920;28;20050;-67
2023/03/22 00:27:17;;;;;;;45.75;29.35;;;;;;;;;;4992979;28;20043;-67
2023/03/22 00:29:44;;;;;;;47.08;29.25;;;;;;;;;;4991824;28;20415;-67
2023/03/22 00:32:12;;;;;;;52.10;30.60;;;;;;;;;;4992965;28;20163;-67
2023/03/22 00:34:39;;;;;;;49.70;29.73;;;;;;;;;;4975644;28;20038;-67
2023/03/22 00:37:08;;;;;;;49.58;30.80;;;;;;;;;;4993041;28;20054;-67
2023/03/22 00:39:35;;;;;;;46.55;30.88;;;;;;;;;;4975580;28;20122;-67
2023/03/22 00:42:05;;;;;;;47.42;31.42;;;;;;;;;;4975520;28;20051;-67
2023/03/22 00:44:32;;;;;;;46.10;30.15;;;;;;;;;;4975567;28;20110;-67
2023/03/22 00:47:00;;;;;;;49.17;30.67;;;;;;;;;;4975512;28;20504;-67
2023/03/22 00:49:28;;;;;;;51.00;31.80;;;;;;;;;;4975592;28;20382;-67
2023/03/22 00:51:55;;;;;;;44.67;29.67;;;;;;;;;;4975542;28;20057;-67
2023/03/22 00:54:23;;;;;;;49.85;31.23;;;;;;;;;;4959578;28;20125;-67
2023/03/22 00:56:50;;;;;;;47.35;31.13;;;;;;;;;;4975494;28;20061;-67
2023/03/22 00:59:18;;;;;;;50.42;32.35;;;;;;;;;;4975415;28;20038;-67
2023/03/22 01:01:45;;;;;;;47.22;30.75;;;;;;;;;;4975483;28;20047;-67
2023/03/22 01:04:16;;;;;;;50.08;32.78;;;;;;;;;;4975494;28;20074;-67
2023/03/22 01:06:45;;;;;;;55.15;32.50;;;;;;;;;;4975184;28;20086;-67
2023/03/22 01:09:13;;;;;;;51.53;33.10;;;;;;;;;;4992861;28;20035;-67
2023/03/22 01:11:42;;;;;;;48.90;32.90;;;;;;;;;;4992568;28;20081;-67
2023/03/22 01:14:12;;;;;;;51.47;33.53;;;;;;;;;;4975285;28;20516;-67
2023/03/22 01:16:40;;;;;;;54.83;33.30;;;;;;;;;;4992803;28;20085;-67
2023/03/22 01:19:08;;;;;;;54.22;33.22;;;;;;;;;;4975275;28;20046;-67
2023/03/22 01:21:36;;;;;;;54.38;34.13;;;;;;;;;;4971793;28;20472;-67
2023/03/22 01:24:03;;;;;;;56.20;33.80;;;;;;;;;;4971988;28;20058;-67
2023/03/22 01:26:31;;;;;;;53.60;32.72;;;;;;;;;;4974901;28;20413;-68
2023/03/22 01:28:58;;;;;;;58.80;33.55;;;;;;;;;;4992724;28;20053;-67
2023/03/22 01:31:26;;;;;;;58.50;34.55;;;;;;;;;;4992795;28;20118;-67
2023/03/22 01:33:54;;;;;;;57.60;35.67;;;;;;;;;;4975264;28;20101;-67
2023/03/22 01:36:22;;;;;;;52.25;32.10;;;;;;;;;;4974911;28;20056;-67
2023/03/22 01:38:50;;;;;;;55.03;33.20;;;;;;;;;;4975270;28;20085;-67
2023/03/22 01:41:18;;;;;;;61.25;36.30;;;;;;;;;;4994089;28;20034;-67
2023/03/22 01:44:06;;;;;;;62.33;36.35;;;;;;;;;;4978833;28;20070;-67
2023/03/22 01:46:33;;;;;;;63.10;36.13;;;;;;;;;;4978502;28;20508;-67
2023/03/22 01:49:02;;;;;;;59.63;35.63;;;;;;;;;;4978663;28;20050;-67
2023/03/22 01:51:29;;;;;;;60.22;35.33;;;;;;;;;;4978492;28;20046;-67
2023/03/22 01:54:08;;;;;;;60.13;35.80;;;;;;;;;;4978471;28;20054;-67
2023/03/22 01:56:38;;;;;;;62.55;35.65;;;;;;;;;;4967264;28;20081;-67
2023/03/22 01:59:10;;;;;;;65.20;35.95;;;;;;;;;;4975292;28;20119;-66
2023/03/22 02:02:09;;;;;;;65.10;36.25;;;;;;;;;;4983055;28;20053;-67
2023/03/22 02:04:38;;;;;;;62.10;35.85;;;;;;;;;;4978355;28;20050;-67
2023/03/22 02:07:14;;;;;;;61.40;35.63;;;;;;;;;;4995880;28;20485;-67
2023/03/22 02:09:44;;;;;;;60.22;35.58;;;;;;;;;;4978247;28;20101;-67
2023/03/22 02:12:21;;;;;;;62.38;36.13;;;;;;;;;;4978180;28;20046;-67
2023/03/22 02:15:11;;;;;;;64.47;37.03;;;;;;;;;;4978068;28;20054;-67
2023/03/22 02:18:05;;;;;;;63.95;37.70;;;;;;;;;;4977875;28;20054;-67
2023/03/22 02:20:37;;;;;;;65.88;37.63;;;;;;;;;;4977854;28;20085;-67
2023/03/22 02:23:23;;;;;;;64.82;37.25;;;;;;;;;;4995389;28;20456;-67
2023/03/22 02:25:50;;;;;;;;;;;;;;;;;;4978408;28;20047;-67
2023/03/22 02:28:44;;;;;;;63.78;35.38;;;;;;;;;;4977717;28;19948;-67
2023/03/22 02:31:12;;;;;;;62.88;36.58;;;;;;;;;;4949287;28;20047;-67
2023/03/22 02:33:58;;;;;;;65.65;37.30;;;;;;;;;;4977698;28;20076;-67
2023/03/22 02:36:38;;;;;;;62.85;36.35;;;;;;;;;;4977592;28;20413;-67
2023/03/22 02:39:05;;;;;;;71.80;38.15;;;;;;;;;;4977560;28;20522;-67
2023/03/22 02:41:33;;;;;;;68.00;37.95;;;;;;;;;;4977625;28;20042;-67
2023/03/22 02:44:07;;;;;;;65.25;37.13;;;;;;;;;;4977682;28;20050;-67
2023/03/22 02:46:43;;;;;;;71.78;37.63;;;;;;;;;;4977663;28;20056;-67
2023/03/22 02:49:25;;;;;;;70.13;38.35;;;;;;;;;;4977551;28;20121;-67
2023/03/22 02:52:22;;;;;;;70.70;37.17;;;;;;;;;;4994797;28;20133;-67
2023/03/22 02:54:54;;;;;;;68.45;37.88;;;;;;;;;;4962073;28;20453;-67
2023/03/22 02:57:26;;;;;;;69.43;39.90;;;;;;;;;;4977353;28;20057;-67
2023/03/22 02:59:56;;;;;;;69.43;38.55;;;;;;;;;;4994783;28;20511;-67
2023/03/22 03:02:26;;;;;;;71.13;40.22;;;;;;;;;;4994699;28;20060;-67
2023/03/22 03:04:54;;;;;;;74.30;40.08;;;;;;;;;;4994576;28;20042;-67
2023/03/22 03:07:25;;;;;;;65.20;38.80;;;;;;;;;;4994597;28;20045;-67
2023/03/22 03:09:53;;;;;;;71.97;38.35;;;;;;;;;;4994564;28;20404;-67
2023/03/22 03:12:22;;;;;;;71.85;39.80;;;;;;;;;;4994490;28;20503;-67
2023/03/22 03:14:52;;;;;;;69.47;39.08;;;;;;;;;;4977022;28;20046;-67
2023/03/22 03:17:23;;;;;;;70.00;39.33;;;;;;;;;;4976893;28;20386;-67
2023/03/22 03:19:54;;;;;;;68.03;38.90;;;;;;;;;;4976829;28;20060;-67
2023/03/22 03:22:36;;;;;;;68.65;38.42;;;;;;;;;;4976658;28;20085;-67
2023/03/22 03:25:13;;;;;;;69.75;39.50;;;;;;;;;;4994258;28;20048;-66
2023/03/22 03:27:48;;;;;;;66.70;38.90;;;;;;;;;;4976689;28;20078;-67
2023/03/22 03:30:25;;;;;;;63.88;36.90;;;;;;;;;;4976712;28;20398;-66
2023/03/22 03:32:55;;;;;;;64.30;37.83;;;;;;;;;;4976965;28;20091;-67
2023/03/22 03:35:26;;;;;;;69.55;38.92;;;;;;;;;;4976689;28;20054;-67
2023/03/22 03:38:00;;;;;;;69.28;38.25;;;;;;;;;;4976578;28;20061;-67
2023/03/22 03:40:30;;;;;;;70.18;37.33;;;;;;;;;;4976548;28;20404;-66
2023/03/22 03:42:59;;;;;;;63.45;37.35;;;;;;;;;;4976375;28;20038;-66
2023/03/22 03:45:27;;;;;;;72.30;39.42;;;;;;;;;;4993840;28;20069;-67
2023/03/22 03:48:00;;;;;;;67.00;36.67;;;;;;;;;;4993926;28;20523;-67
2023/03/22 03:50:28;;;;;;;61.85;36.88;;;;;;;;;;4976263;28;20046;-67
2023/03/22 03:52:56;;;;;;;70.15;38.75;;;;;;;;;;4976302;28;20129;-66
2023/03/22 03:55:24;;;;;;;67.40;36.80;;;;;;;;;;4976276;28;20046;-67
2023/03/22 03:57:51;;;;;;;67.10;38.42;;;;;;;;;;4976100;28;20046;-67
2023/03/22 04:00:19;;;;;;;66.28;37.97;;;;;;;;;;4976236;28;20053;-67
2023/03/22 04:03:05;;;;;;;71.72;39.63;;;;;;;;;;4993742;28;20056;-67
2023/03/22 04:05:53;;;;;;;65.47;37.20;;;;;;;;;;4992477;28;20128;-67
2023/03/22 04:08:21;;;;;;;64.63;37.17;;;;;;;;;;4976004;28;20406;-67
2023/03/22 04:10:50;;;;;;;69.32;39.78;;;;;;;;;;4993419;28;20042;-67
2023/03/22 04:13:24;;;;;;;66.38;38.28;;;;;;;;;;4975883;28;20050;-67
2023/03/22 04:15:56;;;;;;;69.10;40.00;;;;;;;;;;4975976;28;20078;-67
2023/03/22 04:18:26;;;;;;;64.72;38.30;;;;;;;;;;4975715;28;20489;-67
2023/03/22 04:20:55;;;;;;;65.53;38.42;;;;;;;;;;4975759;28;20053;-67
2023/03/22 04:23:24;;;;;;;74.07;39.28;;;;;;;;;;4976251;28;20079;-67
2023/03/22 04:25:53;;;;;;;70.22;40.17;;;;;;;;;;4975894;28;20508;-67
2023/03/22 04:28:32;;;;;;;65.05;37.53;;;;;;;;;;4975833;28;20505;-67
2023/03/22 04:31:02;;;;;;;70.53;39.67;;;;;;;;;;4976033;28;20062;-67
2023/03/22 04:33:55;;;;;;;65.38;37.40;;;;;;;;;;4992522;28;20103;-67
2023/03/22 04:36:44;;;;;;;64.35;37.47;;;;;;;;;;4992384;28;20061;-67
2023/03/22 04:39:23;;;;;;;60.25;35.53;;;;;;;;;;4975784;28;20050;-67
2023/03/22 04:41:59;;;;;;;67.82;37.30;;;;;;;;;;4975754;28;20046;-66
2023/03/22 04:44:27;;;;;;;65.57;36.47;;;;;;;;;;4975676;28;20042;-66
2023/03/22 04:46:55;;;;;;;65.90;36.13;;;;;;;;;;4975753;28;20404;-66
2023/03/22 04:49:22;;;;;;;62.17;36.05;;;;;;;;;;4975720;28;20530;-67
2023/03/22 04:51:50;;;;;;;63.25;36.65;;;;;;;;;;4975522;28;20039;-67
2023/03/22 04:54:28;;;;;;;62.40;33.85;;;;;;;;;;4975515;28;20042;-67
2023/03/22 04:56:55;;;;;;;57.30;33.28;;;;;;;;;;4975124;28;20091;-67
2023/03/22 04:59:24;;;;;;;57.88;36.03;;;;;;;;;;4991491;28;20065;-67
2023/03/22 05:01:52;;;;;;;60.40;34.15;;;;;;;;;;4975386;28;20054;-67
2023/03/22 05:04:26;;;;;;;65.90;35.55;;;;;;;;;;4991697;28;20042;-67
2023/03/22 05:07:03;;;;;;;61.30;34.38;;;;;;;;;;4975526;28;20446;-67
2023/03/22 05:09:41;;;;;;;59.58;34.92;;;;;;;;;;4991491;28;20042;-67
2023/03/22 05:12:09;;;;;;;61.42;36.85;;;;;;;;;;4975434;28;20042;-67
2023/03/22 05:14:47;;;;;;;59.67;35.35;;;;;;;;;;4965820;28;20042;-67
2023/03/22 05:17:20;;;;;;;56.55;34.03;;;;;;;;;;4992934;28;20042;-70
2023/03/22 05:19:51;;;;;;;58.60;34.45;;;;;;;;;;4995284;28;20097;-66
2023/03/22 05:22:21;;;;;;;61.47;33.58;;;;;;;;;;4978720;28;20046;-66
2023/03/22 05:24:51;;;;;;;52.17;32.58;;;;;;;;;;4995248;28;20474;-67
2023/03/22 05:27:30;;;;;;;56.03;33.17;;;;;;;;;;4979133;28;20047;-66
2023/03/22 05:30:20;;;;;;;57.92;32.75;;;;;;;;;;4977761;28;20050;-65
2023/03/22 05:32:55;;;;;;;;;;;;;;;;;;4978291;28;20070;-65
2023/03/22 05:35:23;;;;;;;54.05;31.63;;;;;;;;;;4994863;28;20000;-65
2023/03/22 05:37:53;;;;;;;55.78;30.85;;;;;;;;;;4994522;28;20476;-65
2023/03/22 05:40:21;;;;;;;50.42;30.42;;;;;;;;;;4978638;28;20050;-65
2023/03/22 05:42:49;;;;;;;47.22;28.10;;;;;;;;;;4978383;28;20042;-65
2023/03/22 05:45:21;;;;;;;52.10;30.35;;;;;;;;;;4994651;28;20050;-65
2023/03/22 05:48:00;;;;;;;51.15;30.38;;;;;;;;;;4978276;28;20046;-65
2023/03/22 05:50:29;;;;;;;51.78;30.02;;;;;;;;;;4978387;28;20073;-66
2023/03/22 05:52:58;;;;;;;50.58;31.30;;;;;;;;;;4978204;28;20106;-70
2023/03/22 05:55:26;;;;;;;53.95;31.38;;;;;;;;;;4996121;28;20096;-67
2023/03/22 05:57:58;;;;;;;47.97;29.92;;;;;;;;;;4975076;28;20510;-67
2023/03/22 06:00:27;;;;;;;51.05;30.00;;;;;;;;;;4977583;28;20042;-66
2023/03/22 06:03:17;;;;;;;48.95;30.08;;;;;;;;;;4995613;28;20133;-66
2023/03/22 06:05:53;;;;;;;49.13;29.45;;;;;;;;;;4975245;28;20049;-66
2023/03/22 06:08:31;;;;;;;45.35;28.83;;;;;;;;;;4978032;28;20050;-66
2023/03/22 06:10:59;;;;;;;50.97;30.30;;;;;;;;;;4975018;28;20053;-66
2023/03/22 06:13:27;;;;;;;55.65;31.02;;;;;;;;;;4977316;28;20043;-66
2023/03/22 06:15:55;;;;;;;52.00;30.10;;;;;;;;;;4975042;28;20077;-66
2023/03/22 06:18:25;;;;;;;53.30;31.60;;;;;;;;;;4976955;28;20061;-66
2023/03/22 06:21:01;;;;;;;55.60;32.03;;;;;;;;;;4959946;28;20106;-66
2023/03/22 06:23:29;;;;;;;52.45;31.02;;;;;;;;;;4977369;28;20055;-66
2023/03/22 06:25:57;;;;;;;52.15;30.67;;;;;;;;;;4974823;28;20097;-66
2023/03/22 06:28:28;;;;;;;51.35;29.33;;;;;;;;;;4975541;28;20050;-67
2023/03/22 06:30:57;;;;;;;53.38;29.27;;;;;;;;;;4974593;28;20038;-66
2023/03/22 06:33:53;;;;;;;53.35;29.60;;;;;;;;;;4980807;28;20061;-66
2023/03/22 06:36:41;;;;;;;52.78;30.33;;;;;;;;;;4967476;28;20072;-68
2023/03/22 06:39:23;;;;;;;50.40;30.38;;;;;;;;;;4976107;28;20055;-67
2023/03/22 06:41:51;;;;;;;52.60;30.80;;;;;;;;;;4974358;28;20054;-65
2023/03/22 06:44:19;;;;;;;51.97;30.40;;;;;;;;;;4992950;28;20100;-67
2023/03/22 06:46:49;;;;;;;47.17;29.25;;;;;;;;;;4995401;28;20050;-65
2023/03/22 06:49:37;;;;;;;50.63;28.75;;;;;;;;;;4932253;28;20133;-66
2023/03/22 06:52:05;;;;;;;51.42;29.10;;;;;;;;;;4974220;28;20505;-67
2023/03/22 06:54:34;;;;;;;49.05;28.48;;;;;;;;;;4974224;28;20117;-67
2023/03/22 06:57:01;;;;;;;48.15;29.02;;;;;;;;;;4974031;28;20404;-66
2023/03/22 06:59:29;;;;;;;45.42;28.13;;;;;;;;;;4976736;28;20097;-67
2023/03/22 07:01:57;;;;;;;43.65;27.88;;;;;;;;;;4974062;28;20071;-67
2023/03/22 07:04:26;;;;;;;43.95;26.17;;;;;;;;;;4975966;28;20043;-67
2023/03/22 07:06:55;;;;;;;49.50;28.42;;;;;;;;;;4994928;28;20046;-67
2023/03/22 07:09:25;;;;;;;44.47;26.85;;;;;;;;;;4975943;28;20045;-67
2023/03/22 07:11:56;;;;;;;43.50;26.02;;;;;;;;;;4958423;28;20050;-67
2023/03/22 07:14:24;;;;;;;41.53;26.52;;;;;;;;;;4975830;28;20043;-67
2023/03/22 07:17:11;;;;;;;45.38;27.17;;;;;;;;;;4973743;28;20421;-67
2023/03/22 07:19:40;;;;;;;47.22;27.48;;;;;;;;;;4973532;28;20081;-67
2023/03/22 07:22:09;;;;;;;56.13;27.27;;;;;;;;;;4973521;28;20047;-67
2023/03/22 07:24:38;;;;;;;44.75;26.92;;;;;;;;;;4973856;28;20054;-67
2023/03/22 07:27:23;;;;;;;44.07;25.70;;;;;;;;;;4975479;28;20105;-67
2023/03/22 07:29:50;;;;;;;41.75;25.58;;;;;;;;;;4957604;28;20047;-67
2023/03/22 07:32:18;;;;;;;40.63;26.65;;;;;;;;;;4974532;28;20138;-68
2023/03/22 07:35:07;;;;;;;42.05;26.20;;;;;;;;;;4973508;28;20062;-67
2023/03/22 07:37:35;;;;;;;44.70;26.65;;;;;;;;;;4973284;28;20098;-67
2023/03/22 07:40:08;;;;;;;46.70;27.90;;;;;;;;;;4973044;28;20134;-67
2023/03/22 07:42:36;;;;;;;46.78;28.35;;;;;;;;;;4973301;28;20069;-67
2023/03/22 07:45:34;;;;;;;44.63;25.55;;;;;;;;;;4973224;28;20046;-67
2023/03/22 07:48:22;;;;;;;44.25;26.35;;;;;;;;;;4936601;28;20059;-67
2023/03/22 07:51:07;;;;;;;44.92;27.98;;;;;;;;;;4973126;28;20085;-67
2023/03/22 07:53:36;;;;;;;45.80;26.60;;;;;;;;;;4968514;28;20056;-68
2023/03/22 07:56:04;;;;;;;41.38;25.52;;;;;;;;;;4993770;28;20038;-67
2023/03/22 07:58:32;;;;;;;39.38;25.08;;;;;;;;;;4976058;28;20070;-67
2023/03/22 08:01:03;;;;;;;41.28;26.25;;;;;;;;;;4972948;28;20039;-67
2023/03/22 08:03:51;;;;;;;41.63;25.10;;;;;;;;;;4973070;28;20526;-67
2023/03/22 08:06:35;;;;;;;37.17;23.83;;;;;;;;;;4972872;28;20134;-67
2023/03/22 08:09:04;;;;;;;36.80;24.20;;;;;;;;;;4973002;28;20623;-67
2023/03/22 08:11:32;;;;;;;39.47;25.67;;;;;;;;;;4975873;28;20046;-67
2023/03/22 08:13:59;;;;;;;40.30;25.77;;;;;;;;;;4972714;28;20054;-67
2023/03/22 08:16:29;;;;;;;41.13;23.92;;;;;;;;;;4975318;28;20054;-67
2023/03/22 08:18:58;;;;;;;43.40;25.02;;;;;;;;;;4972683;28;20046;-67
2023/03/22 08:21:28;;;;;;;40.10;25.10;;;;;;;;;;4975077;28;20563;-67
2023/03/22 08:23:56;;;;;;;41.60;24.55;;;;;;;;;;4972609;28;20493;-67
2023/03/22 08:26:44;;;;;;;43.20;28.05;;;;;;;;;;4993579;28;20058;-67
2023/03/22 08:29:21;;;;;;;44.05;26.20;;;;;;;;;;4973923;28;20077;-68
2023/03/22 08:31:50;;;;;;;41.15;27.48;;;;;;;;;;4972608;28;20218;-67
2023/03/22 08:34:17;;;;;;;40.28;25.73;;;;;;;;;;4973679;28;20404;-68
2023/03/22 08:36:45;;;;;;;42.30;25.77;;;;;;;;;;4972736;28;20047;-67
2023/03/22 08:39:12;;;;;;;39.40;24.67;;;;;;;;;;4972896;28;20049;-67
2023/03/22 08:41:55;;;;;;;36.92;24.05;;;;;;;;;;4972459;28;20528;-67
2023/03/22 08:44:25;;;;;;;38.03;24.30;;;;;;;;;;4974502;28;20054;-67
2023/03/22 08:46:53;;;;;;;41.85;26.77;;;;;;;;;;4972400;28;20045;-67
2023/03/22 08:49:20;;;;;;;57.45;30.00;;;;;;;;;;4973903;28;20134;-67
2023/03/22 08:51:56;;;;;;;50.90;29.90;;;;;;;;;;4975356;28;20054;-67
2023/03/22 08:54:40;;;;;;;;;;;;;;;;;;4959089;28;20500;-67
2023/03/22 08:57:28;;;;;;;40.97;23.75;;;;;;;;;;4997316;28;20307;-67
2023/03/22 09:00:09;;;;;;;43.50;26.75;;;;;;;;;;4976182;28;20050;-67
2023/03/22 09:02:44;;;;;;;41.53;25.08;;;;;;;;;;4972795;28;20053;-68
2023/03/22 09:05:13;;;;;;;45.53;25.77;;;;;;;;;;4979429;28;20049;-67
2023/03/22 09:07:41;;;;;;;45.83;27.17;;;;;;;;;;4976239;28;20038;-67
2023/03/22 09:10:23;;;;;;;47.40;29.67;;;;;;;;;;4977868;28;20067;-67
2023/03/22 09:12:51;;;;;;;40.67;24.65;;;;;;;;;;4976158;28;20050;-67
2023/03/22 09:15:19;;;;;;;40.38;26.80;;;;;;;;;;4977196;28;20067;-67
2023/03/22 09:18:01;;;;;;;47.42;28.27;;;;;;;;;;4976016;28;20141;-67
2023/03/22 09:20:28;;;;;;;47.78;29.73;;;;;;;;;;4978398;28;20097;-67
2023/03/22 09:22:56;;;;;;;44.40;27.90;;;;;;;;;;4979386;28;20031;-67
2023/03/22 09:25:24;;;;;;;46.53;28.15;;;;;;;;;;4979065;28;20050;-68
2023/03/22 09:27:52;;;;;;;48.83;29.90;;;;;;;;;;4978884;28;20115;-67
2023/03/22 09:30:19;;;;;;;48.15;28.98;;;;;;;;;;4978996;28;20042;-67
2023/03/22 09:32:47;;;;;;;42.30;26.92;;;;;;;;;;4979023;28;20069;-67
2023/03/22 09:35:16;;;;;;;41.40;26.30;;;;;;;;;;4978919;28;20517;-67
2023/03/22 09:37:55;;;;;;;48.28;29.02;;;;;;;;;;4978743;28;20415;-67
2023/03/22 09:40:26;;;;;;;46.45;29.23;;;;;;;;;;4978720;28;20057;-67
2023/03/22 09:42:56;;;;;;;46.80;27.48;;;;;;;;;;4978820;28;20073;-67
2023/03/22 09:45:31;;;;;;;46.70;29.40;;;;;;;;;;4978665;28;20060;-67
2023/03/22 09:47:59;;;;;;;43.85;27.20;;;;;;;;;;4996116;28;20069;-68
2023/03/22 09:50:31;;;;;;;44.25;27.67;;;;;;;;;;4996051;28;20046;-67
2023/03/22 09:52:59;;;;;;;44.88;28.33;;;;;;;;;;4996045;28;20073;-67
2023/03/22 09:55:35;;;;;;;47.72;28.80;;;;;;;;;;4996029;28;20045;-67
2023/03/22 09:58:06;;;;;;;48.78;29.00;;;;;;;;;;4995844;28;20052;-67
2023/03/22 10:01:03;;;;;;;47.65;28.98;;;;;;;;;;4995695;28;20521;-67
2023/03/22 10:03:34;;;;;;;43.80;28.98;;;;;;;;;;4927120;28;20060;-67
2023/03/22 10:06:04;;;;;;;43.92;27.77;;;;;;;;;;4995829;28;20062;-67
2023/03/22 10:08:41;;;;;;;44.33;27.05;;;;;;;;;;4995805;28;20425;-69
2023/03/22 10:11:17;;;;;;;41.05;27.67;;;;;;;;;;4995744;28;20157;-67
2023/03/22 10:13:54;;;;;;;42.10;27.50;;;;;;;;;;4995698;28;20069;-68
2023/03/22 10:16:31;;;;;;;44.10;28.30;;;;;;;;;;4995662;28;20054;-68
2023/03/22 10:19:12;;;;;;;47.17;30.15;;;;;;;;;;4995537;28;20097;-68
2023/03/22 10:21:41;;;;;;;52.33;33.03;;;;;;;;;;4977968;28;20054;-69
2023/03/22 10:24:19;;;;;;;47.40;29.55;;;;;;;;;;4995435;28;20051;-68
2023/03/22 10:26:47;;;;;;;45.25;29.25;;;;;;;;;;4995495;28;20436;-68
2023/03/22 10:29:21;;;;;;;45.30;29.88;;;;;;;;;;4995357;28;20046;-68
2023/03/22 10:31:49;;;;;;;47.35;30.77;;;;;;;;;;4995265;28;20485;-67
2023/03/22 10:34:21;;;;;;;50.42;32.58;;;;;;;;;;4978281;28;20038;-68
2023/03/22 10:36:52;;;;;;;50.03;30.83;;;;;;;;;;4995306;28;20057;-68
2023/03/22 10:39:26;;;;;;;50.28;30.02;;;;;;;;;;4995156;28;20046;-68
2023/03/22 10:41:55;;;;;;;43.88;29.38;;;;;;;;;;4995120;28;20101;-68
2023/03/22 10:44:26;;;;;;;58.10;33.92;;;;;;;;;;4995251;28;20095;-68
2023/03/22 10:46:53;;;;;;;49.75;31.85;;;;;;;;;;4995112;28;20078;-68
2023/03/22 10:49:27;;;;;;;47.10;31.90;;;;;;;;;;4995124;28;20129;-68
2023/03/22 10:51:58;;;;;;;42.10;30.00;;;;;;;;;;4995021;28;20065;-67
2023/03/22 10:54:26;;;;;;;42.80;28.92;;;;;;;;;;4994980;28;20512;-67
2023/03/22 10:56:53;;;;;;;40.92;27.67;;;;;;;;;;4995015;28;20104;-67
2023/03/22 10:59:40;;;;;;;50.03;32.03;;;;;;;;;;4994906;28;20042;-67
2023/03/22 11:02:17;;;;;;;43.80;29.60;;;;;;;;;;4994921;28;20052;-67
2023/03/22 11:04:49;;;;;;;44.97;30.25;;;;;;;;;;4994924;28;20062;-67
2023/03/22 11:07:26;;;;;;;44.05;27.63;;;;;;;;;;4994829;28;20038;-68
2023/03/22 11:10:06;;;;;;;42.88;28.55;;;;;;;;;;4994719;28;20069;-68
2023/03/22 11:12:45;;;;;;;41.88;27.35;;;;;;;;;;4994572;28;20053;-68
2023/03/22 11:15:26;;;;;;;44.13;28.95;;;;;;;;;;4994159;28;20035;-69
2023/03/22 11:17:58;;;;;;;42.97;27.33;;;;;;;;;;4994817;28;20081;-69
2023/03/22 11:20:25;;;;;;;45.80;28.33;;;;;;;;;;4994224;28;20177;-69
2023/03/22 11:22:59;;;;;;;45.65;28.00;;;;;;;;;;4977012;28;20065;-68
2023/03/22 11:25:29;;;;;;;39.83;28.02;;;;;;;;;;4994285;28;20381;-68
2023/03/22 11:28:15;;;;;;;41.78;27.63;;;;;;;;;;4994229;28;20034;-68
2023/03/22 11:30:58;;;;;;;42.53;27.75;;;;;;;;;;4994209;28;20050;-68
2023/03/22 11:33:25;;;;;;;45.60;29.92;;;;;;;;;;4976778;28;20385;-68
2023/03/22 11:35:54;;;;;;;43.28;26.48;;;;;;;;;;4994265;28;20065;-68
2023/03/22 11:38:25;;;;;;;39.95;27.35;;;;;;;;;;4994280;28;20120;-68
2023/03/22 11:40:55;;;;;;;44.53;27.42;;;;;;;;;;4993968;28;20089;-68
2023/03/22 11:43:24;;;;;;;38.78;27.65;;;;;;;;;;4993877;28;20504;-68
2023/03/22 11:45:54;;;;;;;49.83;28.38;;;;;;;;;;4993897;28;20038;-68
2023/03/22 11:48:23;;;;;;;42.08;27.05;;;;;;;;;;4976683;28;20374;-68
2023/03/22 11:50:55;;;;;;;38.50;26.98;;;;;;;;;;4994013;28;20042;-68
2023/03/22 11:53:24;;;;;;;46.10;30.75;;;;;;;;;;4993867;28;20492;-68
2023/03/22 11:55:53;;;;;;;44.28;29.67;;;;;;;;;;4993809;28;20069;-68
2023/03/22 11:58:42;;;;;;;41.88;28.70;;;;;;;;;;4993711;28;20073;-68
2023/03/22 12:01:15;;;;;;;42.33;29.95;;;;;;;;;;4976095;28;20824;-68
2023/03/22 12:03:43;;;;;;;42.53;28.25;;;;;;;;;;4993704;28;20066;-68
2023/03/22 12:06:18;;;;;;;42.13;28.90;;;;;;;;;;4993638;28;20125;-68
2023/03/22 12:08:49;;;;;;;41.03;28.77;;;;;;;;;;4993584;28;20489;-68
2023/03/22 12:11:25;;;;;;;44.53;30.00;;;;;;;;;;4993448;28;20038;-68
2023/03/22 12:13:56;;;;;;;37.33;26.80;;;;;;;;;;4993448;28;20045;-68
2023/03/22 12:16:38;;;;;;;35.88;26.27;;;;;;;;;;4976265;28;20440;-68
2023/03/22 12:19:17;;;;;;;36.90;25.73;;;;;;;;;;4993469;28;20038;-68
2023/03/22 12:21:45;;;;;;;35.20;25.67;;;;;;;;;;4993333;28;20171;-67
2023/03/22 12:24:22;;;;;;;33.65;24.42;;;;;;;;;;4993538;28;20046;-68
2023/03/22 12:26:51;;;;;;;34.78;25.05;;;;;;;;;;4993081;28;20458;-68
2023/03/22 12:29:19;;;;;;;35.42;24.88;;;;;;;;;;4993359;28;20047;-68
2023/03/22 12:32:05;;;;;;;30.20;23.30;;;;;;;;;;4993148;28;20117;-68
2023/03/22 12:34:41;;;;;;;35.00;25.35;;;;;;;;;;4993183;28;20559;-68
2023/03/22 12:37:14;;;;;;;39.13;26.48;;;;;;;;;;4993522;28;20046;-68
2023/03/22 12:39:56;;;;;;;33.08;23.58;;;;;;;;;;4993441;28;20070;-68
2023/03/22 12:43:03;;;;;;;29.67;21.55;;;;;;;;;;4993211;28;20058;-67
2023/03/22 12:45:31;;;;;;;31.20;23.98;;;;;;;;;;4913924;29;20502;-67
2023/03/22 12:48:14;;;;;;;33.47;24.63;;;;;;;;;;4914018;29;20506;-69
2023/03/22 12:50:43;;;;;;;33.33;24.90;;;;;;;;;;4961736;28;20113;-67
2023/03/22 12:53:15;;;;;;;31.25;22.73;;;;;;;;;;4993091;28;20046;-67
2023/03/22 12:55:44;;;;;;;32.58;22.27;;;;;;;;;;4993026;28;20038;-67
2023/03/22 12:58:14;;;;;;;30.73;23.15;;;;;;;;;;4992948;28;20038;-67
2023/03/22 13:00:45;;;;;;;30.10;22.05;;;;;;;;;;4992802;28;20042;-67
2023/03/22 13:03:18;;;;;;;27.08;20.02;;;;;;;;;;4992941;28;20073;-68
2023/03/22 13:05:47;;;;;;;26.95;20.13;;;;;;;;;;4992837;28;20511;-67
2023/03/22 13:08:20;;;;;;;28.08;20.98;;;;;;;;;;4992642;28;20058;-67
2023/03/22 13:10:56;;;;;;;25.65;19.38;;;;;;;;;;4992930;28;20045;-67
2023/03/22 13:13:24;;;;;;;27.75;19.25;;;;;;;;;;4992903;28;20046;-67
2023/03/22 13:15:55;;;;;;;27.67;19.30;;;;;;;;;;4992888;28;20038;-67
2023/03/22 13:18:28;;;;;;;31.45;20.75;;;;;;;;;;4993230;28;20544;-67
2023/03/22 13:21:18;;;;;;;26.55;19.55;;;;;;;;;;4992808;28;20150;-67
2023/03/22 13:23:56;;;;;;;29.15;18.55;;;;;;;;;;4992890;28;20093;-67
2023/03/22 13:26:44;;;;;;;29.42;20.67;;;;;;;;;;4992825;28;20061;-67
2023/03/22 13:29:25;;;;;;;26.55;20.40;;;;;;;;;;4992829;28;20042;-67
2023/03/22 13:31:56;;;;;;;30.23;21.58;;;;;;;;;;4992680;28;20489;-67
2023/03/22 13:34:32;;;;;;;28.45;20.98;;;;;;;;;;4992780;28;20034;-67
2023/03/22 13:37:04;;;;;;;29.13;21.88;;;;;;;;;;4993979;28;20069;-67
2023/03/22 13:39:33;;;;;;;30.90;22.30;;;;;;;;;;4996221;28;20093;-67
2023/03/22 13:42:20;;;;;;;32.55;21.27;;;;;;;;;;4996146;28;20042;-67
2023/03/22 13:44:55;;;;;;;27.67;19.65;;;;;;;;;;4996136;28;20047;-67
2023/03/22 13:47:38;;;;;;;26.25;18.90;;;;;;;;;;4996202;28;20057;-66
2023/03/22 13:50:16;;;;;;;24.80;17.05;;;;;;;;;;4996191;28;20042;-67
2023/03/22 13:52:51;;;;;;;25.50;18.27;;;;;;;;;;4996023;28;20531;-67
2023/03/22 13:55:40;;;;;;;26.15;19.00;;;;;;;;;;4996023;28;20513;-67
2023/03/22 13:58:11;;;;;;;22.27;16.33;;;;;;;;;;4995886;28;20039;-67
2023/03/22 14:00:43;;;;;;;25.00;18.42;;;;;;;;;;4995702;28;20078;-67
2023/03/22 14:03:23;;;;;;;28.85;20.80;;;;;;;;;;4995786;28;20493;-67
2023/03/22 14:05:56;;;;;;;27.73;21.73;;;;;;;;;;4995689;28;20065;-66
2023/03/22 14:08:28;;;;;;;24.50;18.55;;;;;;;;;;4995692;28;20050;-67
2023/03/22 14:11:02;;;;;;;25.10;18.67;;;;;;;;;;4995783;28;20133;-66
2023/03/22 14:13:39;;;;;;;18.60;14.25;;;;;;;;;;4978162;28;20137;-66
2023/03/22 14:16:31;;;;;;;18.98;14.32;;;;;;;;;;4995616;28;20046;-67
2023/03/22 14:18:59;;;;;;;14.73;12.00;;;;;;;;;;4995750;28;20049;-66
2023/03/22 14:21:34;;;;;;;16.65;13.00;;;;;;;;;;4995407;28;20101;-67
2023/03/22 14:24:01;;;;;;;;;;;;;;;;;;4995889;28;20038;-66
2023/03/22 14:26:34;;;;;;;23.83;15.85;;;;;;;;;;4995522;28;19910;-67
2023/03/22 14:29:26;;;;;;;17.20;13.45;;;;;;;;;;4995361;28;20027;-67
2023/03/22 14:31:59;;;;;;;21.33;15.43;;;;;;;;;;4990562;28;20047;-67
2023/03/22 14:34:27;;;;;;;20.02;15.40;;;;;;;;;;4992861;28;20026;-66
2023/03/22 14:36:58;;;;;;;20.05;15.55;;;;;;;;;;4994784;28;20504;-67
2023/03/22 14:39:34;;;;;;;19.58;13.82;;;;;;;;;;4994406;28;20116;-66
2023/03/22 14:42:06;;;;;;;19.50;13.75;;;;;;;;;;4994790;28;20045;-65
2023/03/22 14:44:55;;;;;;;18.63;14.10;;;;;;;;;;4994713;28;20080;-66
2023/03/22 14:47:28;;;;;;;20.95;14.70;;;;;;;;;;4984333;28;20042;-66
2023/03/22 14:49:56;;;;;;;19.30;14.55;;;;;;;;;;4993826;28;20050;-66
2023/03/22 14:52:24;;;;;;;20.90;15.18;;;;;;;;;;4976941;28;20038;-66